| time (UTC) | temp C | wind direction | speed KPH | gust KPH | rain 1hr cm | rain 24hr cm | rain mn cm | humidity % | barometer mb |
| 20260506104002 | 8 | 333 | 12.9 | 22.5 | 0.00 | 0.61 | 0.61 | 92 | 1006.9 |
| 20260506103504 | 8 | 159 | 4.8 | 19.3 | 0.00 | 0.61 | 0.61 | 92 | 1007.0 |
| 20260506103025 | 8 | 44 | 6.4 | 19.3 | 0.00 | 0.61 | 0.61 | 92 | 1006.6 |
| 20260506103009 | 8 | 17 | 6.4 | 19.3 | 0.00 | 0.61 | 0.61 | 92 | 1007.0 |
| 20260506102504 | 8 | 14 | 4.8 | 14.5 | 0.00 | 0.61 | 0.61 | 92 | 1007.0 |
| 20260506102006 | 8 | 24 | 6.4 | 19.3 | 0.00 | 0.61 | 0.61 | 92 | 1006.9 |
| 20260506101520 | 8 | 42 | 6.4 | 22.5 | 0.00 | 0.58 | 0.58 | 92 | 1006.9 |
| 20260506101516 | 8 | 42 | 6.4 | 22.5 | 0.00 | 0.58 | 0.58 | 92 | 1006.5 |
| 20260506101007 | 8 | 28 | 8.0 | 22.5 | 0.00 | 0.58 | 0.58 | 92 | 1006.8 |
| 20260506100505 | 8 | 23 | 6.4 | 20.9 | 0.00 | 0.58 | 0.58 | 92 | 1006.8 |
| 20260506100007 | 8 | 5 | 8.0 | 20.9 | 0.00 | 0.58 | 0.58 | 92 | 1006.8 |
| 20260506095506 | 8 | 5 | 8.0 | 29.0 | 0.00 | 0.58 | 0.58 | 92 | 1006.8 |
| 20260506095004 | 8 | 323 | 6.4 | 29.0 | 0.00 | 0.58 | 0.58 | 93 | 1006.8 |
| 20260506094525 | 7 | 19 | 11.3 | 20.9 | 0.00 | 0.58 | 0.58 | 93 | 1006.4 |
| 20260506094520 | 7 | 5 | 11.3 | 20.9 | 0.00 | 0.58 | 0.58 | 93 | 1006.8 |
| 20260506094004 | 8 | 32 | 8.0 | 17.7 | 0.03 | 0.58 | 0.58 | 93 | 1006.7 |
| 20260506093503 | 8 | 59 | 4.8 | 17.7 | 0.03 | 0.58 | 0.58 | 94 | 1006.8 |
| 20260506093031 | 8 | 114 | 6.4 | 14.5 | 0.03 | 0.58 | 0.58 | 93 | 1006.3 |
| 20260506093014 | 8 | 47 | 6.4 | 14.5 | 0.03 | 0.58 | 0.58 | 94 | 1006.8 |
| 20260506092504 | 8 | 297 | 3.2 | 16.1 | 0.03 | 0.58 | 0.58 | 94 | 1006.7 |
| 20260506092011 | 8 | 19 | 4.8 | 16.1 | 0.03 | 0.58 | 0.58 | 93 | 1006.7 |
| 20260506091524 | 8 | 11 | 4.8 | 17.7 | 0.03 | 0.58 | 0.58 | 93 | 1006.2 |
| 20260506091508 | 8 | 31 | 4.8 | 17.7 | 0.03 | 0.58 | 0.58 | 93 | 1006.7 |
| 20260506091004 | 7 | 348 | 4.8 | 14.5 | 0.05 | 0.58 | 0.58 | 93 | 1006.7 |
| 20260506090503 | 7 | 49 | 4.8 | 16.1 | 0.05 | 0.58 | 0.58 | 93 | 1006.7 |
| 20260506090015 | 7 | 355 | 6.4 | 17.7 | 0.03 | 0.56 | 0.56 | 93 | 1006.2 |
| 20260506090007 | 7 | 38 | 6.4 | 16.1 | 0.03 | 0.56 | 0.56 | 93 | 1006.7 |
| 20260506085503 | 7 | 38 | 4.8 | 17.7 | 0.03 | 0.56 | 0.56 | 93 | 1006.7 |
| 20260506085004 | 7 | 34 | 8.0 | 17.7 | 0.05 | 0.56 | 0.56 | 93 | 1006.7 |
| 20260506084519 | 7 | 32 | 4.8 | 16.1 | 0.05 | 0.56 | 0.56 | 93 | 1006.2 |
| 20260506084511 | 7 | 32 | 4.8 | 16.1 | 0.05 | 0.56 | 0.56 | 93 | 1006.6 |
| 20260506084004 | 7 | 355 | 4.8 | 16.1 | 0.03 | 0.56 | 0.56 | 93 | 1006.7 |
| 20260506083505 | 7 | 26 | 8.0 | 17.7 | 0.03 | 0.56 | 0.56 | 93 | 1006.6 |
| 20260506083029 | 7 | 48 | 8.0 | 17.7 | 0.05 | 0.56 | 0.56 | 93 | 1006.1 |
| 20260506083011 | 7 | 5 | 8.0 | 17.7 | 0.05 | 0.56 | 0.56 | 93 | 1006.6 |
| 20260506082503 | 7 | 90 | 4.8 | 14.5 | 0.05 | 0.56 | 0.56 | 93 | 1006.5 |
| 20260506082006 | 7 | 19 | 4.8 | 17.7 | 0.05 | 0.56 | 0.56 | 93 | 1006.6 |
| 20260506081510 | 7 | 44 | 6.4 | 17.7 | 0.05 | 0.56 | 0.56 | 93 | 1006.4 |
| 20260506081006 | 7 | 39 | 6.4 | 17.7 | 0.03 | 0.53 | 0.53 | 93 | 1006.5 |
| 20260506080506 | 7 | 26 | 9.7 | 16.1 | 0.03 | 0.53 | 0.53 | 93 | 1006.5 |
| 20260506073507 | 7 | 57 | 3.2 | 17.7 | 0.03 | 0.51 | 0.51 | 93 | 1006.3 |
| 20260506073026 | 7 | 74 | 4.8 | 14.5 | 0.03 | 0.48 | 0.48 | 93 | 1006.3 |
| 20260506073021 | 7 | 74 | 4.8 | 14.5 | 0.03 | 0.48 | 0.48 | 93 | 1005.9 |
| 20260506072507 | 7 | 61 | 6.4 | 16.1 | 0.03 | 0.48 | 0.48 | 93 | 1006.3 |
| 20260506072008 | 7 | 67 | 8.0 | 17.7 | 0.03 | 0.48 | 0.48 | 93 | 1006.3 |
| 20260506071525 | 7 | 5 | 6.4 | 20.9 | 0.05 | 0.48 | 0.48 | 93 | 1005.9 |
| 20260506071504 | 7 | 26 | 6.4 | 20.9 | 0.05 | 0.48 | 0.48 | 93 | 1006.2 |
| 20260506071006 | 7 | 16 | 8.0 | 20.9 | 0.05 | 0.48 | 0.48 | 93 | 1006.2 |
| 20260506070506 | 7 | 44 | 6.4 | 27.4 | 0.05 | 0.48 | 0.48 | 93 | 1006.1 |
| 20260506062509 | 7 | 59 | 8.0 | 19.3 | 0.05 | 0.46 | 0.46 | 94 | 1005.9 |
| 20260506062009 | 7 | 46 | 8.0 | 19.3 | 0.05 | 0.46 | 0.46 | 93 | 1005.8 |
| 20260506061516 | 7 | 64 | 8.0 | 17.7 | 0.03 | 0.43 | 0.43 | 93 | 1005.8 |
| 20260506061505 | 7 | 355 | 8.0 | 17.7 | 0.03 | 0.43 | 0.43 | 93 | 1005.6 |
| 20260506061006 | 7 | 24 | 4.8 | 17.7 | 0.03 | 0.43 | 0.43 | 94 | 1005.7 |
| 20260506060506 | 7 | 59 | 8.0 | 20.9 | 0.03 | 0.43 | 0.43 | 94 | 1005.7 |
| 20260506051009 | 8 | 126 | 6.4 | 16.1 | 0.03 | 0.38 | 0.38 | 95 | 1005.4 |
| 20260506050506 | 8 | 71 | 3.2 | 17.7 | 0.03 | 0.38 | 0.38 | 95 | 1005.4 |
| 20260506045007 | 8 | 355 | 6.4 | 16.1 | 0.05 | 0.38 | 0.38 | 96 | 1005.6 |
| 20260506044549 | 8 | 327 | 4.8 | 20.9 | 0.05 | 0.41 | 0.38 | 96 | 1005.5 |
| 20260506044512 | 8 | 5 | 4.8 | 20.9 | 0.05 | 0.41 | 0.38 | 96 | 1005.2 |
| 20260506044005 | 8 | 30 | 4.8 | 20.9 | 0.03 | 0.38 | 0.36 | 96 | 1005.6 |
| 20260506043506 | 8 | 29 | 6.4 | 16.1 | 0.03 | 0.38 | 0.36 | 96 | 1005.6 |
| 20260506043020 | 8 | 17 | 4.8 | 12.9 | 0.05 | 0.38 | 0.36 | 96 | 1005.2 |
| 20260506043016 | 8 | 17 | 4.8 | 12.9 | 0.05 | 0.38 | 0.36 | 96 | 1005.6 |
| 20260506042509 | 8 | 38 | 4.8 | 14.5 | 0.05 | 0.38 | 0.36 | 96 | 1005.6 |
| 20260506042012 | 8 | 335 | 6.4 | 14.5 | 0.05 | 0.38 | 0.36 | 96 | 1005.6 |
| 20260506041522 | 8 | 355 | 6.4 | 16.1 | 0.03 | 0.36 | 0.36 | 95 | 1005.2 |
| 20260506041519 | 8 | 355 | 6.4 | 16.1 | 0.03 | 0.36 | 0.36 | 95 | 1005.6 |
| 20260506041012 | 8 | 355 | 9.7 | 16.1 | 0.05 | 0.38 | 0.36 | 95 | 1005.6 |
| 20260506040510 | 8 | 5 | 6.4 | 12.9 | 0.05 | 0.38 | 0.36 | 95 | 1005.7 |
| 20260506040026 | 8 | 336 | 4.8 | 14.5 | 0.08 | 0.41 | 0.36 | 95 | 1005.3 |
| 20260506040022 | 8 | 336 | 4.8 | 14.5 | 0.08 | 0.41 | 0.36 | 95 | 1005.6 |
| 20260506035506 | 8 | 348 | 6.4 | 14.5 | 0.08 | 0.41 | 0.36 | 95 | 1005.6 |
| 20260506035007 | 8 | 340 | 8.0 | 12.9 | 0.08 | 0.41 | 0.33 | 95 | 1005.7 |
| 20260506034543 | 8 | 348 | 6.4 | 12.9 | 0.08 | 0.41 | 0.33 | 95 | 1005.7 |
| 20260506034506 | 8 | 348 | 6.4 | 12.9 | 0.08 | 0.41 | 0.33 | 95 | 1005.3 |
| 20260506034008 | 8 | 334 | 4.8 | 12.9 | 0.08 | 0.43 | 0.33 | 95 | 1005.8 |
| 20260506033506 | 8 | 342 | 6.4 | 12.9 | 0.08 | 0.43 | 0.33 | 95 | 1005.8 |
| 20260506033021 | 8 | 355 | 4.8 | 16.1 | 0.08 | 0.43 | 0.30 | 95 | 1005.8 |
| 20260506033018 | 8 | 340 | 4.8 | 16.1 | 0.08 | 0.43 | 0.30 | 95 | 1005.5 |
| 20260506032507 | 8 | 344 | 6.4 | 16.1 | 0.08 | 0.43 | 0.30 | 95 | 1005.9 |
| 20260506032008 | 8 | 350 | 4.8 | 16.1 | 0.10 | 0.46 | 0.30 | 95 | 1005.8 |
| 20260506031532 | 8 | 333 | 4.8 | 16.1 | 0.10 | 0.46 | 0.30 | 95 | 1005.5 |
| 20260506031521 | 8 | 333 | 4.8 | 16.1 | 0.10 | 0.46 | 0.30 | 95 | 1005.8 |
| 20260506031008 | 8 | 348 | 6.4 | 16.1 | 0.08 | 0.46 | 0.28 | 95 | 1005.8 |
| 20260506030510 | 8 | 336 | 6.4 | 14.5 | 0.08 | 0.46 | 0.28 | 95 | 1005.9 |
| 20260506030026 | 8 | 340 | 6.4 | 12.9 | 0.08 | 0.48 | 0.28 | 95 | 1005.6 |
| 20260506030019 | 8 | 340 | 6.4 | 12.9 | 0.08 | 0.48 | 0.28 | 95 | 1005.9 |
| 20260506025512 | 8 | 5 | 4.8 | 12.9 | 0.08 | 0.53 | 0.28 | 95 | 1005.9 |
| 20260506025007 | 8 | 343 | 3.2 | 14.5 | 0.08 | 0.53 | 0.25 | 95 | 1005.9 |
| 20260506024529 | 8 | 298 | 4.8 | 19.3 | 0.08 | 0.56 | 0.25 | 95 | 1005.6 |
| 20260506024520 | 8 | 298 | 4.8 | 19.3 | 0.08 | 0.56 | 0.25 | 95 | 1006.0 |
| 20260506024011 | 8 | 338 | 4.8 | 19.3 | 0.08 | 0.56 | 0.23 | 95 | 1006.0 |
| 20260506023513 | 8 | 350 | 4.8 | 16.1 | 0.08 | 0.56 | 0.23 | 95 | 1006.0 |
| 20260506023021 | 8 | 333 | 6.4 | 16.1 | 0.08 | 0.56 | 0.20 | 95 | 1006.0 |
| 20260506023011 | 8 | 333 | 6.4 | 16.1 | 0.08 | 0.56 | 0.20 | 95 | 1005.7 |
| 20260506022510 | 8 | 339 | 8.0 | 14.5 | 0.08 | 0.56 | 0.20 | 95 | 1006.1 |
| 20260506022009 | 8 | 355 | 4.8 | 16.1 | 0.08 | 0.56 | 0.18 | 95 | 1006.1 |
| 20260506021517 | 8 | 355 | 6.4 | 17.7 | 0.08 | 0.58 | 0.18 | 95 | 1006.1 |
| 20260506021009 | 8 | 326 | 6.4 | 19.3 | 0.08 | 0.61 | 0.18 | 95 | 1006.2 |
| 20260506020509 | 8 | 340 | 8.0 | 19.3 | 0.08 | 0.61 | 0.18 | 95 | 1006.1 |
| 20260506020022 | 8 | 107 | 6.4 | 17.7 | 0.08 | 0.61 | 0.18 | 95 | 1005.9 |
| 20260506015504 | 8 | 5 | 3.2 | 17.7 | 0.08 | 0.64 | 0.18 | 95 | 1006.2 |
| 20260506015006 | 8 | 327 | 8.0 | 17.7 | 0.08 | 0.64 | 0.15 | 95 | 1006.2 |
| 20260506014523 | 8 | 281 | 4.8 | 19.3 | 0.08 | 0.66 | 0.15 | 95 | 1006.0 |
| 20260506014504 | 8 | 277 | 4.8 | 19.3 | 0.08 | 0.66 | 0.15 | 95 | 1006.3 |
| 20260506014004 | 8 | 22 | 6.4 | 19.3 | 0.10 | 0.71 | 0.15 | 95 | 1006.3 |
| 20260506013505 | 8 | 44 | 6.4 | 14.5 | 0.08 | 0.74 | 0.13 | 95 | 1006.4 |
| 20260506013010 | 8 | 348 | 6.4 | 16.1 | 0.08 | 0.74 | 0.13 | 95 | 1006.4 |
| 20260506013006 | 8 | 348 | 6.4 | 16.1 | 0.08 | 0.74 | 0.13 | 95 | 1006.1 |
| 20260506012506 | 8 | 36 | 6.4 | 17.7 | 0.10 | 0.76 | 0.13 | 95 | 1006.4 |
| 20260506012007 | 8 | 49 | 6.4 | 17.7 | 0.08 | 0.76 | 0.10 | 95 | 1006.4 |
| 20260506011523 | 8 | 20 | 8.0 | 17.7 | 0.08 | 0.79 | 0.10 | 95 | 1006.4 |
| 20260506011517 | 8 | 102 | 8.0 | 17.7 | 0.08 | 0.79 | 0.10 | 95 | 1006.2 |
| 20260506011009 | 8 | 49 | 3.2 | 17.7 | 0.08 | 0.79 | 0.08 | 95 | 1006.5 |
| 20260506010507 | 8 | 20 | 6.4 | 17.7 | 0.08 | 0.81 | 0.08 | 95 | 1006.5 |
| 20260506010043 | 8 | 38 | 1.6 | 14.5 | 0.08 | 0.79 | 0.08 | 94 | 1006.3 |
| 20260506010018 | 8 | 38 | 1.6 | 14.5 | 0.08 | 0.79 | 0.08 | 94 | 1006.5 |
| 20260506005509 | 8 | 15 | 4.8 | 16.1 | 0.08 | 0.81 | 0.08 | 94 | 1006.6 |
| 20260506005010 | 8 | 355 | 4.8 | 14.5 | 0.05 | 0.79 | 0.05 | 94 | 1006.6 |
| 20260506004534 | 8 | 36 | 4.8 | 17.7 | 0.05 | 0.81 | 0.05 | 94 | 1006.7 |
| 20260506004524 | 8 | 16 | 6.4 | 17.7 | 0.05 | 0.81 | 0.05 | 94 | 1006.4 |
| 20260506004012 | 8 | 5 | 6.4 | 17.7 | 0.03 | 0.81 | 0.03 | 94 | 1006.7 |
| 20260506003504 | 8 | 349 | 6.4 | 17.7 | 0.03 | 0.84 | 0.03 | 94 | 1006.6 |
| 20260506003037 | 8 | 355 | 6.4 | 20.9 | 0.03 | 0.84 | 0.03 | 94 | 1006.7 |
| 20260506003024 | 8 | 348 | 6.4 | 20.9 | 0.03 | 0.84 | 0.03 | 94 | 1006.5 |
| 20260506002511 | 8 | 42 | 6.4 | 20.9 | 0.00 | 0.84 | 0.00 | 94 | 1006.8 |
| 20260506002003 | 8 | 312 | 4.8 | 19.3 | 0.00 | 0.84 | 0.00 | 94 | 1006.8 |
| 20260506001513 | 8 | 13 | 4.8 | 19.3 | 0.00 | 0.86 | 0.00 | 94 | 1006.7 |
| 20260506001004 | 8 | 34 | 4.8 | 17.7 | 0.00 | 0.84 | 0.00 | 94 | 1006.8 |
| 20260506000507 | 8 | 325 | 8.0 | 16.1 | 0.00 | 0.84 | 0.00 | 94 | 1006.8 |
| 20260506000016 | 8 | 44 | 6.4 | 19.3 | 0.00 | 0.86 | 0.00 | 94 | 1006.9 |
| 20260505235508 | 8 | 5 | 3.2 | 19.3 | 0.00 | 0.86 | 0.00 | 94 | 1006.9 |
| 20260505235006 | 8 | 342 | 8.0 | 22.5 | 0.00 | 0.86 | 0.00 | 94 | 1007.0 |
| 20260505234533 | 8 | 53 | 6.4 | 22.5 | 0.00 | 0.89 | 0.00 | 94 | 1007.0 |
| 20260505234519 | 8 | 53 | 6.4 | 22.5 | 0.00 | 0.89 | 0.00 | 94 | 1006.8 |
| 20260505234009 | 8 | 25 | 8.0 | 22.5 | 0.00 | 0.89 | 0.00 | 94 | 1007.1 |
| 20260505233515 | 8 | 36 | 4.8 | 24.1 | 0.00 | 0.89 | 0.00 | 94 | 1007.1 |
| 20260505233024 | 8 | 9 | 11.3 | 24.1 | 0.00 | 0.91 | 0.00 | 94 | 1007.2 |
| 20260505233021 | 8 | 22 | 11.3 | 24.1 | 0.00 | 0.91 | 0.00 | 94 | 1006.9 |
| 20260505232513 | 8 | 23 | 6.4 | 17.7 | 0.00 | 0.91 | 0.00 | 93 | 1007.1 |
| 20260505232004 | 8 | 102 | 6.4 | 16.1 | 0.00 | 0.94 | 0.00 | 93 | 1007.1 |
| 20260505231525 | 8 | 344 | 8.0 | 19.3 | 0.00 | 0.94 | 0.00 | 93 | 1007.0 |
| 20260505231510 | 8 | 5 | 8.0 | 19.3 | 0.00 | 0.94 | 0.00 | 93 | 1007.2 |
| 20260505231003 | 8 | 296 | 4.8 | 19.3 | 0.00 | 0.94 | 0.00 | 93 | 1007.2 |
| 20260505230503 | 8 | 355 | 6.4 | 19.3 | 0.00 | 0.94 | 0.00 | 93 | 1007.2 |
| 20260505230035 | 8 | 360 | 4.8 | 24.1 | 0.00 | 0.94 | 0.00 | 93 | 1007.3 |
| 20260505230016 | 8 | 34 | 4.8 | 24.1 | 0.00 | 0.94 | 0.00 | 93 | 1007.1 |
| 20260505225517 | 8 | 346 | 9.7 | 19.3 | 0.00 | 0.94 | 0.00 | 93 | 1007.4 |
| 20260505225010 | 8 | 9 | 6.4 | 19.3 | 0.00 | 0.94 | 0.00 | 93 | 1007.4 |
| 20260505224525 | 8 | 92 | 8.0 | 19.3 | 0.00 | 0.94 | 0.00 | 92 | 1007.4 |
| 20260505224518 | 8 | 92 | 8.0 | 19.3 | 0.00 | 0.94 | 0.00 | 92 | 1007.2 |
| 20260505224009 | 8 | 54 | 8.0 | 20.9 | 0.00 | 0.94 | 0.00 | 92 | 1007.4 |
| 20260505223510 | 8 | 346 | 6.4 | 24.1 | 0.00 | 0.97 | 0.00 | 92 | 1007.5 |
| 20260505223030 | 8 | 47 | 8.0 | 24.1 | 0.00 | 0.97 | 0.00 | 92 | 1007.4 |
| 20260505223021 | 8 | 36 | 8.0 | 24.1 | 0.00 | 0.97 | 0.00 | 92 | 1007.3 |
| 20260505222510 | 8 | 329 | 9.7 | 24.1 | 0.00 | 0.97 | 0.00 | 92 | 1007.4 |
| 20260505222011 | 8 | 221 | 8.0 | 24.1 | 0.00 | 0.99 | 0.00 | 91 | 1007.5 |
| 20260505221528 | 8 | 323 | 11.3 | 22.5 | 0.00 | 0.99 | 0.00 | 91 | 1007.5 |
| 20260505221509 | 8 | 267 | 12.9 | 24.1 | 0.00 | 0.99 | 0.00 | 91 | 1007.3 |
| 20260505221011 | 8 | 71 | 11.3 | 22.5 | 0.00 | 0.99 | 0.00 | 91 | 1007.5 |
| 20260505220512 | 8 | 21 | 11.3 | 20.9 | 0.00 | 0.99 | 0.00 | 91 | 1007.6 |
| 20260505220038 | 8 | 62 | 6.4 | 24.1 | 0.00 | 0.99 | 0.00 | 91 | 1007.5 |
| 20260505220011 | 8 | 62 | 6.4 | 24.1 | 0.00 | 0.99 | 0.00 | 91 | 1007.4 |
| 20260505215506 | 8 | 20 | 11.3 | 24.1 | 0.00 | 0.99 | 0.99 | 91 | 1007.6 |
| 20260505215006 | 8 | 5 | 11.3 | 20.9 | 0.00 | 0.99 | 0.99 | 90 | 1007.6 |
| 20260505214522 | 9 | 260 | 8.0 | 25.7 | 0.00 | 0.99 | 0.99 | 90 | 1007.6 |
| 20260505214512 | 9 | 260 | 9.7 | 25.7 | 0.00 | 0.99 | 0.99 | 90 | 1007.5 |
| 20260505214007 | 9 | 355 | 9.7 | 25.7 | 0.00 | 0.99 | 0.99 | 90 | 1007.7 |
| 20260505213508 | 9 | 19 | 14.5 | 25.7 | 0.00 | 1.02 | 0.99 | 89 | 1007.6 |
| 20260505213021 | 9 | 344 | 9.7 | 20.9 | 0.00 | 1.02 | 0.99 | 89 | 1007.6 |
| 20260505212515 | 9 | 166 | 6.4 | 19.3 | 0.00 | 1.02 | 0.99 | 89 | 1007.6 |
| 20260505212015 | 9 | 32 | 11.3 | 24.1 | 0.00 | 1.02 | 0.99 | 89 | 1007.7 |
| 20260505211526 | 9 | 115 | 8.0 | 24.1 | 0.00 | 1.02 | 0.99 | 88 | 1007.8 |
| 20260505211508 | 9 | 115 | 9.7 | 24.1 | 0.00 | 1.02 | 0.99 | 88 | 1007.6 |
| 20260505211009 | 9 | 31 | 12.9 | 20.9 | 0.00 | 1.04 | 0.99 | 88 | 1007.7 |
| 20260505210511 | 10 | 90 | 9.7 | 27.4 | 0.00 | 1.04 | 0.99 | 88 | 1007.8 |
| 20260505210026 | 10 | 17 | 9.7 | 22.5 | 0.00 | 1.07 | 0.99 | 88 | 1007.8 |
| 20260505210010 | 10 | 17 | 9.7 | 27.4 | 0.00 | 1.07 | 0.99 | 88 | 1007.7 |
| 20260505205510 | 10 | 340 | 9.7 | 22.5 | 0.00 | 1.07 | 0.99 | 88 | 1007.7 |
| 20260505205010 | 10 | 35 | 9.7 | 22.5 | 0.00 | 1.07 | 0.99 | 87 | 1007.8 |
| 20260505204514 | 10 | 5 | 4.8 | 20.9 | 0.00 | 1.09 | 0.99 | 87 | 1007.8 |
| 20260505204511 | 10 | 5 | 4.8 | 20.9 | 0.00 | 1.09 | 0.99 | 87 | 1007.9 |
| 20260505204011 | 10 | 9 | 11.3 | 19.3 | 0.00 | 1.12 | 0.99 | 87 | 1007.8 |
| 20260505203512 | 10 | 304 | 8.0 | 22.5 | 0.00 | 1.12 | 0.99 | 87 | 1007.9 |
| 20260505203027 | 10 | 51 | 8.0 | 24.1 | 0.00 | 1.12 | 0.99 | 87 | 1007.7 |
| 20260505203018 | 10 | 355 | 8.0 | 24.1 | 0.00 | 1.12 | 0.99 | 87 | 1007.9 |
| 20260505202508 | 10 | 300 | 9.7 | 24.1 | 0.00 | 1.14 | 0.99 | 86 | 1007.9 |
| 20260505202012 | 10 | 349 | 6.4 | 24.1 | 0.00 | 1.17 | 0.99 | 86 | 1007.8 |
| 20260505201525 | 10 | 11 | 9.7 | 24.1 | 0.00 | 1.19 | 0.99 | 86 | 1007.8 |
| 20260505201522 | 10 | 11 | 9.7 | 24.1 | 0.00 | 1.19 | 0.99 | 86 | 1007.6 |
| 20260505201008 | 10 | 355 | 6.4 | 19.3 | 0.00 | 1.22 | 0.99 | 86 | 1007.8 |
| 20260505200510 | -17 | 5 | 4.8 | 0.0 | 0.00 | 1.30 | 0.99 | 1007.9 | |
| 20260505200028 | 10 | 0.0 | 0.0 | 0.00 | 1.30 | 0.99 | 85 | 1007.9 | |
| 20260505195509 | 10 | 22 | 6.4 | 14.5 | 0.00 | 1.35 | 0.99 | 85 | 1007.8 |
| 20260505195016 | 10 | 8.0 | 16.1 | 0.00 | 1.37 | 0.99 | 84 | 1007.8 | |
| 20260505194534 | 11 | 348 | 8.0 | 16.1 | 0.00 | 1.40 | 0.99 | 84 | 1007.8 |
| 20260505194512 | 11 | 16 | 6.4 | 16.1 | 0.00 | 1.40 | 0.99 | 85 | 1007.6 |
| 20260505194011 | 11 | 14 | 8.0 | 12.9 | 0.00 | 1.40 | 0.99 | 84 | 1007.8 |
| 20260505193509 | 11 | 330 | 4.8 | 16.1 | 0.00 | 1.42 | 0.99 | 84 | 1007.8 |
| 20260505193038 | 11 | 49 | 8.0 | 17.7 | 0.00 | 1.42 | 0.99 | 84 | 1007.8 |
| 20260505193016 | 11 | 327 | 8.0 | 19.3 | 0.00 | 1.42 | 0.99 | 84 | 1007.6 |
| 20260505192512 | 11 | 341 | 6.4 | 20.9 | 0.00 | 1.42 | 0.99 | 84 | 1007.7 |
| 20260505192007 | 11 | 12 | 9.7 | 20.9 | 0.00 | 1.42 | 0.99 | 83 | 1007.7 |
| 20260505191541 | 11 | 8.0 | 20.9 | 0.00 | 1.42 | 0.99 | 84 | 1007.7 | |
| 20260505191520 | 11 | 333 | 8.0 | 20.9 | 0.00 | 1.42 | 0.99 | 84 | 1007.5 |
| 20260505191014 | 11 | 40 | 9.7 | 17.7 | 0.00 | 1.42 | 0.99 | 84 | 1007.6 |
| 20260505190508 | 11 | 360 | 11.3 | 16.1 | 0.00 | 1.42 | 0.99 | 84 | 1007.6 |
| 20260505190029 | 11 | 223 | 8.0 | 17.7 | 0.00 | 1.42 | 0.99 | 84 | 1007.3 |
| 20260505185512 | 11 | 76 | 8.0 | 14.5 | 0.00 | 1.42 | 0.99 | 84 | 1007.4 |
| 20260505185010 | 11 | 6.4 | 14.5 | 0.00 | 1.42 | 0.99 | 84 | 1007.5 | |
| 20260505184527 | 11 | 346 | 6.4 | 14.5 | 0.00 | 1.42 | 0.99 | 85 | 1007.5 |
| 20260505184014 | 11 | 19 | 4.8 | 14.5 | 0.00 | 1.42 | 0.99 | 85 | 1007.5 |
| 20260505183511 | 11 | 350 | 3.2 | 12.9 | 0.00 | 1.42 | 0.99 | 85 | 1007.5 |
| 20260505183028 | 11 | 336 | 6.4 | 16.1 | 0.00 | 1.42 | 0.99 | 85 | 1007.5 |
| 20260505182511 | 11 | 27 | 8.0 | 16.1 | 0.00 | 1.42 | 0.99 | 85 | 1007.5 |
| 20260505182008 | 11 | 340 | 3.2 | 14.5 | 0.00 | 1.42 | 0.99 | 85 | 1007.4 |
| 20260505181516 | 11 | 350 | 8.0 | 16.1 | 0.00 | 1.42 | 0.99 | 85 | 1007.5 |
| 20260505181514 | 11 | 355 | 8.0 | 16.1 | 0.00 | 1.42 | 0.99 | 85 | 1007.3 |
| 20260505181010 | 11 | 355 | 4.8 | 16.1 | 0.00 | 1.42 | 0.99 | 86 | 1007.5 |
| 20260505180507 | 11 | 350 | 6.4 | 12.9 | 0.00 | 1.42 | 0.99 | 86 | 1007.5 |
| 20260505180026 | 11 | 338 | 3.2 | 14.5 | 0.00 | 1.42 | 0.99 | 86 | 1007.3 |
| 20260505180004 | 11 | 338 | 3.2 | 14.5 | 0.00 | 1.42 | 0.99 | 86 | 1007.5 |
| 20260505175509 | 11 | 340 | 3.2 | 14.5 | 0.00 | 1.42 | 0.99 | 86 | 1007.5 |
| 20260505175003 | 11 | 28 | 6.4 | 14.5 | 0.00 | 1.42 | 0.99 | 86 | 1007.5 |
| 20260505174537 | 11 | 345 | 6.4 | 19.3 | 0.00 | 1.42 | 0.99 | 86 | 1007.5 |
| 20260505174525 | 11 | 345 | 6.4 | 19.3 | 0.00 | 1.42 | 0.99 | 86 | 1007.4 |
| 20260505174003 | 11 | 348 | 6.4 | 20.9 | 0.00 | 1.42 | 0.99 | 86 | 1007.5 |
| 20260505173504 | 11 | 5 | 8.0 | 20.9 | 0.00 | 1.42 | 0.99 | 86 | 1007.5 |
| 20260505173036 | 11 | 22 | 4.8 | 14.5 | 0.00 | 1.42 | 0.99 | 86 | 1007.4 |
| 20260505173008 | 11 | 15 | 6.4 | 14.5 | 0.00 | 1.42 | 0.99 | 86 | 1007.6 |
| 20260505172506 | 11 | 5 | 6.4 | 14.5 | 0.00 | 1.42 | 0.99 | 86 | 1007.6 |
| 20260505172010 | 11 | 40 | 4.8 | 16.1 | 0.00 | 1.42 | 0.99 | 87 | 1007.6 |
| 20260505171515 | 11 | 51 | 8.0 | 16.1 | 0.00 | 1.42 | 0.99 | 87 | 1007.5 |
| 20260505171511 | 11 | 17 | 6.4 | 16.1 | 0.00 | 1.42 | 0.99 | 87 | 1007.4 |
| 20260505171006 | 11 | 342 | 6.4 | 17.7 | 0.00 | 1.42 | 0.99 | 87 | 1007.6 |
| 20260505170510 | 11 | 346 | 8.0 | 17.7 | 0.00 | 1.42 | 0.99 | 87 | 1007.6 |
| 20260505170032 | 11 | 14 | 6.4 | 17.7 | 0.00 | 1.42 | 0.99 | 87 | 1007.6 |
| 20260505165507 | 11 | 332 | 8.0 | 17.7 | 0.00 | 1.42 | 0.99 | 87 | 1007.6 |
| 20260505165011 | 11 | 62 | 9.7 | 17.7 | 0.00 | 1.42 | 0.99 | 87 | 1007.7 |
| 20260505164519 | 11 | 153 | 8.0 | 17.7 | 0.00 | 1.42 | 0.99 | 87 | 1007.6 |
| 20260505164503 | 11 | 302 | 8.0 | 17.7 | 0.00 | 1.42 | 0.99 | 87 | 1007.8 |
| 20260505164010 | 11 | 348 | 6.4 | 16.1 | 0.00 | 1.42 | 0.99 | 87 | 1007.8 |
| 20260505163510 | 11 | 315 | 6.4 | 20.9 | 0.00 | 1.42 | 0.99 | 87 | 1007.8 |
| 20260505163028 | 11 | 348 | 9.7 | 20.9 | 0.00 | 1.42 | 0.99 | 87 | 1007.9 |
| 20260505163025 | 11 | 360 | 9.7 | 20.9 | 0.00 | 1.42 | 0.99 | 87 | 1007.7 |
| 20260505162502 | 11 | 56 | 6.4 | 17.7 | 0.00 | 1.42 | 0.99 | 87 | 1007.9 |
| 20260505162007 | 11 | 355 | 4.8 | 17.7 | 0.00 | 1.42 | 0.99 | 87 | 1008.0 |
| 20260505161529 | 11 | 355 | 4.8 | 17.7 | 0.00 | 1.42 | 0.99 | 87 | 1007.7 |
| 20260505161527 | 11 | 355 | 8.0 | 17.7 | 0.00 | 1.42 | 0.99 | 87 | 1008.0 |
| 20260505161007 | 11 | 355 | 8.0 | 17.7 | 0.00 | 1.42 | 0.99 | 87 | 1008.0 |
| 20260505160506 | 11 | 49 | 6.4 | 17.7 | 0.00 | 1.42 | 0.99 | 87 | 1008.1 |
| 20260505153019 | 11 | 41 | 4.8 | 16.1 | 0.00 | 1.42 | 0.99 | 88 | 1007.9 |
| 20260505153003 | 11 | 355 | 4.8 | 16.1 | 0.00 | 1.42 | 0.99 | 88 | 1008.3 |
| 20260505152503 | 11 | 42 | 8.0 | 14.5 | 0.00 | 1.42 | 0.99 | 88 | 1008.4 |
| 20260505152006 | 11 | 342 | 4.8 | 14.5 | 0.00 | 1.42 | 0.99 | 88 | 1008.4 |
| 20260505151533 | 11 | 92 | 3.2 | 12.9 | 0.00 | 1.42 | 0.99 | 88 | 1008.1 |
| 20260505151531 | 11 | 92 | 3.2 | 12.9 | 0.00 | 1.42 | 0.99 | 88 | 1008.5 |
| 20260505151012 | 11 | 18 | 6.4 | 16.1 | 0.00 | 1.42 | 0.99 | 88 | 1008.5 |
| 20260505150507 | 11 | 5 | 6.4 | 16.1 | 0.00 | 1.42 | 0.99 | 88 | 1008.5 |
| 20260505140505 | 10 | 49 | 9.7 | 19.3 | 0.00 | 1.42 | 0.99 | 88 | 1008.8 |
| 20260505125003 | 10 | 39 | 11.3 | 20.9 | 0.00 | 1.42 | 0.99 | 91 | 1009.2 |
| 20260505124515 | 9 | 16 | 11.3 | 19.3 | 0.00 | 1.42 | 0.99 | 91 | 1009.2 |
| 20260505124503 | 9 | 16 | 9.7 | 19.3 | 0.00 | 1.42 | 0.99 | 91 | 1009.0 |
| 20260505124008 | 9 | 41 | 11.3 | 19.3 | 0.00 | 1.42 | 0.99 | 91 | 1009.3 |
| 20260505123508 | 9 | 30 | 6.4 | 20.9 | 0.00 | 1.42 | 0.99 | 91 | 1009.3 |
| 20260505123015 | 9 | 355 | 8.0 | 20.9 | 0.00 | 1.42 | 0.99 | 91 | 1009.4 |
| 20260505123005 | 9 | 355 | 8.0 | 20.9 | 0.00 | 1.42 | 0.99 | 91 | 1009.1 |
| 20260505122508 | 9 | 61 | 9.7 | 20.9 | 0.00 | 1.42 | 0.99 | 91 | 1009.3 |
| 20260505122007 | 9 | 29 | 6.4 | 20.9 | 0.00 | 1.42 | 0.99 | 91 | 1009.4 |
| 20260505121522 | 9 | 65 | 8.0 | 20.9 | 0.00 | 1.42 | 0.99 | 91 | 1009.4 |
| 20260505121007 | 9 | 30 | 11.3 | 19.3 | 0.00 | 1.42 | 0.99 | 91 | 1009.4 |
| 20260505120514 | 9 | 49 | 6.4 | 19.3 | 0.00 | 1.42 | 0.99 | 91 | 1009.4 |
| 20260505120051 | 9 | 28 | 12.9 | 24.1 | 0.00 | 1.42 | 0.99 | 91 | 1009.2 |
| 20260505120029 | 9 | 84 | 12.9 | 24.1 | 0.00 | 1.42 | 0.99 | 91 | 1009.4 |
| 20260505115510 | 9 | 38 | 11.3 | 24.1 | 0.00 | 1.42 | 0.99 | 91 | 1009.4 |
| 20260505115020 | 9 | 25 | 12.9 | 20.9 | 0.00 | 1.42 | 0.99 | 91 | 1009.4 |
| 20260505114512 | 9 | 43 | 9.7 | 17.7 | 0.00 | 1.42 | 0.99 | 91 | 1009.2 |
| 20260505114508 | 9 | 43 | 11.3 | 19.3 | 0.00 | 1.42 | 0.99 | 91 | 1009.4 |
| 20260505114007 | 9 | 49 | 4.8 | 20.9 | 0.00 | 1.42 | 0.99 | 91 | 1009.4 |
| 20260505113508 | 9 | 65 | 14.5 | 20.9 | 0.00 | 1.42 | 0.99 | 91 | 1009.4 |
| 20260505113018 | 9 | 56 | 1.6 | 17.7 | 0.00 | 1.42 | 0.99 | 92 | 1009.5 |
| 20260505112507 | 9 | 21 | 4.8 | 17.7 | 0.00 | 1.42 | 0.99 | 92 | 1009.5 |
| 20260505112011 | 9 | 338 | 3.2 | 16.1 | 0.00 | 1.42 | 0.99 | 92 | 1009.5 |
| 20260505111520 | 9 | 322 | 4.8 | 16.1 | 0.00 | 1.42 | 0.99 | 91 | 1009.6 |
| 20260505111008 | 9 | 355 | 4.8 | 16.1 | 0.00 | 1.42 | 0.99 | 92 | 1009.6 |
| 20260505110508 | 9 | 48 | 4.8 | 19.3 | 0.00 | 1.42 | 0.99 | 92 | 1009.6 |